sensor_id;sensor_type;location;lat;lon;timestamp;pressure;altitude;pressure_sealevel;temperature;humidity
59274;BME280;45044;41.572;24.730;2023-03-25T00:00:14;91151.31;;;3.89;100.00
59274;BME280;45044;41.572;24.730;2023-03-25T00:02:49;91145.19;;;3.97;100.00
59274;BME280;45044;41.572;24.730;2023-03-25T00:05:19;91149.69;;;3.84;100.00
59274;BME280;45044;41.572;24.730;2023-03-25T00:07:48;91148.88;;;3.51;100.00
59274;BME280;45044;41.572;24.730;2023-03-25T00:10:16;91146.47;;;3.58;100.00
59274;BME280;45044;41.572;24.730;2023-03-25T00:12:43;91136.59;;;3.64;100.00
59274;BME280;45044;41.572;24.730;2023-03-25T00:15:11;91141.28;;;3.75;100.00
59274;BME280;45044;41.572;24.730;2023-03-25T00:17:38;91132.59;;;3.83;100.00
59274;BME280;45044;41.572;24.730;2023-03-25T00:20:07;91134.25;;;3.91;100.00
59274;BME280;45044;41.572;24.730;2023-03-25T00:22:38;91128.38;;;3.94;100.00
59274;BME280;45044;41.572;24.730;2023-03-25T00:25:13;91135.69;;;4.05;100.00
59274;BME280;45044;41.572;24.730;2023-03-25T00:27:48;91124.53;;;4.04;100.00
59274;BME280;45044;41.572;24.730;2023-03-25T00:30:17;91130.97;;;3.94;100.00
59274;BME280;45044;41.572;24.730;2023-03-25T00:32:45;91119.25;;;3.85;100.00
59274;BME280;45044;41.572;24.730;2023-03-25T00:35:15;91121.50;;;3.86;100.00
59274;BME280;45044;41.572;24.730;2023-03-25T00:37:54;91123.00;;;3.87;100.00
59274;BME280;45044;41.572;24.730;2023-03-25T00:40:26;91118.13;;;3.69;100.00
59274;BME280;45044;41.572;24.730;2023-03-25T00:42:54;91121.00;;;3.64;100.00
59274;BME280;45044;41.572;24.730;2023-03-25T00:45:21;91110.00;;;3.71;100.00
59274;BME280;45044;41.572;24.730;2023-03-25T00:47:49;91104.50;;;3.73;100.00
59274;BME280;45044;41.572;24.730;2023-03-25T00:50:16;91103.06;;;3.75;100.00
59274;BME280;45044;41.572;24.730;2023-03-25T00:52:42;91095.16;;;3.71;100.00
59274;BME280;45044;41.572;24.730;2023-03-25T00:55:09;91105.06;;;3.82;100.00
59274;BME280;45044;41.572;24.730;2023-03-25T00:57:36;91103.72;;;3.88;100.00
59274;BME280;45044;41.572;24.730;2023-03-25T01:00:08;91097.94;;;3.95;100.00
59274;BME280;45044;41.572;24.730;2023-03-25T01:02:36;91092.47;;;3.84;100.00
59274;BME280;45044;41.572;24.730;2023-03-25T01:05:05;91096.56;;;3.53;100.00
59274;BME280;45044;41.572;24.730;2023-03-25T01:07:32;91087.94;;;3.49;100.00
59274;BME280;45044;41.572;24.730;2023-03-25T01:09:59;91074.06;;;3.28;100.00
59274;BME280;45044;41.572;24.730;2023-03-25T01:12:26;91086.41;;;3.47;100.00
59274;BME280;45044;41.572;24.730;2023-03-25T01:14:53;91090.84;;;3.31;100.00
59274;BME280;45044;41.572;24.730;2023-03-25T01:17:20;91084.91;;;3.46;100.00
59274;BME280;45044;41.572;24.730;2023-03-25T01:19:47;91072.91;;;3.42;100.00
59274;BME280;45044;41.572;24.730;2023-03-25T01:22:14;91080.03;;;3.29;100.00
59274;BME280;45044;41.572;24.730;2023-03-25T01:24:40;91080.22;;;3.36;100.00
59274;BME280;45044;41.572;24.730;2023-03-25T01:27:07;91071.38;;;3.25;100.00
59274;BME280;45044;41.572;24.730;2023-03-25T01:29:34;91065.28;;;3.33;100.00
59274;BME280;45044;41.572;24.730;2023-03-25T01:32:01;91068.97;;;3.32;100.00
59274;BME280;45044;41.572;24.730;2023-03-25T01:34:31;91069.81;;;3.36;100.00
59274;BME280;45044;41.572;24.730;2023-03-25T01:36:58;91065.19;;;3.45;100.00
59274;BME280;45044;41.572;24.730;2023-03-25T01:39:26;91059.81;;;3.38;100.00
59274;BME280;45044;41.572;24.730;2023-03-25T01:41:53;91055.06;;;3.40;100.00
59274;BME280;45044;41.572;24.730;2023-03-25T01:46:49;91044.81;;;3.15;100.00
59274;BME280;45044;41.572;24.730;2023-03-25T01:49:28;91039.59;;;3.15;100.00
59274;BME280;45044;41.572;24.730;2023-03-25T01:52:02;91043.06;;;3.19;100.00
59274;BME280;45044;41.572;24.730;2023-03-25T01:54:31;91041.78;;;3.13;100.00
59274;BME280;45044;41.572;24.730;2023-03-25T01:56:59;91036.16;;;3.11;100.00
59274;BME280;45044;41.572;24.730;2023-03-25T01:59:27;91039.09;;;3.26;100.00
59274;BME280;45044;41.572;24.730;2023-03-25T02:01:55;91039.34;;;3.20;100.00
59274;BME280;45044;41.572;24.730;2023-03-25T02:04:36;91045.97;;;3.02;100.00
59274;BME280;45044;41.572;24.730;2023-03-25T02:07:06;91036.75;;;3.20;100.00
59274;BME280;45044;41.572;24.730;2023-03-25T02:09:34;91034.41;;;3.15;100.00
59274;BME280;45044;41.572;24.730;2023-03-25T02:12:01;91027.72;;;3.14;100.00
59274;BME280;45044;41.572;24.730;2023-03-25T02:14:30;91024.50;;;3.05;100.00
59274;BME280;45044;41.572;24.730;2023-03-25T02:17:23;91028.59;;;3.06;100.00
59274;BME280;45044;41.572;24.730;2023-03-25T02:22:48;91039.25;;;3.01;100.00
59274;BME280;45044;41.572;24.730;2023-03-25T02:31:05;91026.78;;;3.06;100.00
59274;BME280;45044;41.572;24.730;2023-03-25T02:39:34;91026.56;;;2.83;100.00
59274;BME280;45044;41.572;24.730;2023-03-25T02:44:36;91014.06;;;2.72;100.00
59274;BME280;45044;41.572;24.730;2023-03-25T02:47:16;91016.25;;;2.86;100.00
59274;BME280;45044;41.572;24.730;2023-03-25T02:49:57;91023.72;;;2.88;100.00
59274;BME280;45044;41.572;24.730;2023-03-25T02:52:30;91016.78;;;2.92;100.00
59274;BME280;45044;41.572;24.730;2023-03-25T02:55:00;91018.59;;;2.75;100.00
59274;BME280;45044;41.572;24.730;2023-03-25T02:57:33;91021.78;;;2.85;100.00
59274;BME280;45044;41.572;24.730;2023-03-25T03:00:04;91016.78;;;2.92;100.00
59274;BME280;45044;41.572;24.730;2023-03-25T03:02:44;91023.47;;;2.93;100.00
59274;BME280;45044;41.572;24.730;2023-03-25T03:05:24;91015.78;;;2.97;100.00
59274;BME280;45044;41.572;24.730;2023-03-25T03:07:58;91009.19;;;2.99;100.00
59274;BME280;45044;41.572;24.730;2023-03-25T03:10:38;91019.22;;;3.01;100.00
59274;BME280;45044;41.572;24.730;2023-03-25T03:29:02;91021.91;;;2.60;100.00
59274;BME280;45044;41.572;24.730;2023-03-25T03:31:49;91022.50;;;2.69;100.00
59274;BME280;45044;41.572;24.730;2023-03-25T03:34:42;91025.94;;;2.73;100.00
59274;BME280;45044;41.572;24.730;2023-03-25T03:37:26;91015.38;;;2.66;100.00
59274;BME280;45044;41.572;24.730;2023-03-25T03:39:54;91022.53;;;2.57;100.00
59274;BME280;45044;41.572;24.730;2023-03-25T03:42:36;91017.66;;;2.26;100.00
59274;BME280;45044;41.572;24.730;2023-03-25T03:45:21;91024.31;;;2.40;100.00
59274;BME280;45044;41.572;24.730;2023-03-25T03:47:52;91022.53;;;2.57;100.00
59274;BME280;45044;41.572;24.730;2023-03-25T03:50:26;91018.53;;;2.59;100.00
59274;BME280;45044;41.572;24.730;2023-03-25T03:53:31;91011.31;;;2.53;100.00
59274;BME280;45044;41.572;24.730;2023-03-25T03:56:22;91022.78;;;2.51;100.00
59274;BME280;45044;41.572;24.730;2023-03-25T03:58:49;91016.91;;;2.67;100.00
59274;BME280;45044;41.572;24.730;2023-03-25T04:01:27;91020.25;;;2.84;100.00
59274;BME280;45044;41.572;24.730;2023-03-25T04:04:02;91022.69;;;2.77;100.00
59274;BME280;45044;41.572;24.730;2023-03-25T04:06:38;91020.25;;;2.84;100.00
59274;BME280;45044;41.572;24.730;2023-03-25T04:09:24;91017.91;;;2.79;100.00
59274;BME280;45044;41.572;24.730;2023-03-25T04:12:02;91012.78;;;2.66;100.00
59274;BME280;45044;41.572;24.730;2023-03-25T04:14:31;91020.78;;;2.61;100.00
59274;BME280;45044;41.572;24.730;2023-03-25T04:16:58;91017.53;;;2.64;100.00
59274;BME280;45044;41.572;24.730;2023-03-25T04:19:25;91019.78;;;2.66;100.00
59274;BME280;45044;41.572;24.730;2023-03-25T04:21:52;91017.72;;;2.71;100.00
59274;BME280;45044;41.572;24.730;2023-03-25T04:24:19;91021.59;;;2.78;100.00
59274;BME280;45044;41.572;24.730;2023-03-25T04:26:46;91020.41;;;2.75;100.00
59274;BME280;45044;41.572;24.730;2023-03-25T04:29:15;91011.88;;;2.74;100.00
59274;BME280;45044;41.572;24.730;2023-03-25T04:31:42;91013.28;;;2.72;100.00
59274;BME280;45044;41.572;24.730;2023-03-25T04:34:12;91020.56;;;2.66;100.00
59274;BME280;45044;41.572;24.730;2023-03-25T04:36:40;91013.34;;;2.59;100.00
59274;BME280;45044;41.572;24.730;2023-03-25T04:39:11;91007.00;;;2.44;100.00
59274;BME280;45044;41.572;24.730;2023-03-25T04:41:38;90994.28;;;2.39;100.00
59274;BME280;45044;41.572;24.730;2023-03-25T04:44:05;91023.41;;;2.61;100.00
59274;BME280;45044;41.572;24.730;2023-03-25T04:46:33;91022.78;;;2.80;100.00
59274;BME280;45044;41.572;24.730;2023-03-25T04:49:03;91014.44;;;2.87;100.00
59274;BME280;45044;41.572;24.730;2023-03-25T04:51:32;91004.69;;;2.84;100.00
59274;BME280;45044;41.572;24.730;2023-03-25T04:53:58;91012.22;;;2.89;100.00
59274;BME280;45044;41.572;24.730;2023-03-25T04:56:27;91015.16;;;2.87;100.00
59274;BME280;45044;41.572;24.730;2023-03-25T04:58:53;91013.56;;;2.83;100.00
59274;BME280;45044;41.572;24.730;2023-03-25T05:01:26;91004.69;;;2.84;100.00
59274;BME280;45044;41.572;24.730;2023-03-25T05:03:58;91012.66;;;2.91;100.00
59274;BME280;45044;41.572;24.730;2023-03-25T05:06:32;91018.91;;;2.74;100.00
59274;BME280;45044;41.572;24.730;2023-03-25T05:09:03;91003.38;;;2.90;100.00
59274;BME280;45044;41.572;24.730;2023-03-25T05:11:32;91009.50;;;2.98;100.00
59274;BME280;45044;41.572;24.730;2023-03-25T05:13:59;91007.50;;;3.07;100.00
59274;BME280;45044;41.572;24.730;2023-03-25T05:16:26;91004.50;;;3.21;100.00
59274;BME280;45044;41.572;24.730;2023-03-25T05:18:53;90995.38;;;3.28;100.00
59274;BME280;45044;41.572;24.730;2023-03-25T05:21:19;90999.81;;;3.43;100.00
59274;BME280;45044;41.572;24.730;2023-03-25T05:23:47;91000.13;;;3.42;100.00
59274;BME280;45044;41.572;24.730;2023-03-25T05:26:13;90992.03;;;3.59;100.00
59274;BME280;45044;41.572;24.730;2023-03-25T05:28:40;90985.88;;;3.68;100.00
59274;BME280;45044;41.572;24.730;2023-03-25T05:31:07;90990.47;;;3.75;100.00
59274;BME280;45044;41.572;24.730;2023-03-25T05:33:36;90991.47;;;3.86;100.00
59274;BME280;45044;41.572;24.730;2023-03-25T05:36:09;90995.66;;;4.86;100.00
59274;BME280;45044;41.572;24.730;2023-03-25T05:38:37;90989.72;;;7.41;100.00
59274;BME280;45044;41.572;24.730;2023-03-25T05:41:08;90988.09;;;9.49;100.00
59274;BME280;45044;41.572;24.730;2023-03-25T05:43:45;90992.19;;;11.31;100.00
59274;BME280;45044;41.572;24.730;2023-03-25T05:46:13;90989.63;;;12.62;82.78
59274;BME280;45044;41.572;24.730;2023-03-25T05:48:40;90981.44;;;13.77;71.26
59274;BME280;45044;41.572;24.730;2023-03-25T05:51:13;90981.19;;;14.81;63.82
59274;BME280;45044;41.572;24.730;2023-03-25T05:53:42;90985.66;;;15.41;60.03
59274;BME280;45044;41.572;24.730;2023-03-25T05:56:10;90986.97;;;16.37;56.56
59274;BME280;45044;41.572;24.730;2023-03-25T05:58:37;90990.31;;;17.14;53.75
59274;BME280;45044;41.572;24.730;2023-03-25T06:01:04;90985.69;;;17.70;51.65
59274;BME280;45044;41.572;24.730;2023-03-25T06:03:35;90965.16;;;18.32;49.72
59274;BME280;45044;41.572;24.730;2023-03-25T06:06:04;90975.31;;;18.47;49.23
59274;BME280;45044;41.572;24.730;2023-03-25T06:08:40;90956.44;;;19.12;47.82
59274;BME280;45044;41.572;24.730;2023-03-25T06:11:08;90976.88;;;19.97;46.43
59274;BME280;45044;41.572;24.730;2023-03-25T06:13:35;90973.44;;;20.48;45.50
59274;BME280;45044;41.572;24.730;2023-03-25T06:16:07;90975.81;;;20.55;45.22
59274;BME280;45044;41.572;24.730;2023-03-25T06:18:35;90974.88;;;21.33;42.96
59274;BME280;45044;41.572;24.730;2023-03-25T06:21:03;90966.94;;;21.92;42.08
59274;BME280;45044;41.572;24.730;2023-03-25T06:23:30;90964.56;;;22.43;41.45
59274;BME280;45044;41.572;24.730;2023-03-25T06:26:01;90964.13;;;22.84;40.06
59274;BME280;45044;41.572;24.730;2023-03-25T06:28:29;90968.69;;;23.53;39.42
59274;BME280;45044;41.572;24.730;2023-03-25T06:30:59;90947.66;;;23.67;39.19
59274;BME280;45044;41.572;24.730;2023-03-25T06:33:28;90966.88;;;24.32;38.38
59274;BME280;45044;41.572;24.730;2023-03-25T06:36:11;90963.63;;;24.48;38.10
59274;BME280;45044;41.572;24.730;2023-03-25T06:38:38;90952.94;;;25.22;37.36
59274;BME280;45044;41.572;24.730;2023-03-25T06:41:06;90958.91;;;25.38;36.82
59274;BME280;45044;41.572;24.730;2023-03-25T06:43:33;90957.56;;;25.87;36.24
59274;BME280;45044;41.572;24.730;2023-03-25T06:46:00;90947.09;;;25.94;35.80
59274;BME280;45044;41.572;24.730;2023-03-25T06:48:27;90949.44;;;26.80;35.68
59274;BME280;45044;41.572;24.730;2023-03-25T06:50:54;90939.72;;;27.23;34.83
59274;BME280;45044;41.572;24.730;2023-03-25T06:53:21;90941.19;;;27.12;34.74
59274;BME280;45044;41.572;24.730;2023-03-25T06:55:48;90939.25;;;27.76;34.49
59274;BME280;45044;41.572;24.730;2023-03-25T06:58:15;90941.97;;;27.59;34.32
59274;BME280;45044;41.572;24.730;2023-03-25T07:00:42;90944.63;;;27.99;33.72
59274;BME280;45044;41.572;24.730;2023-03-25T07:03:10;90933.28;;;28.18;33.39
59274;BME280;45044;41.572;24.730;2023-03-25T07:05:36;90932.59;;;28.12;32.74
59274;BME280;45044;41.572;24.730;2023-03-25T07:08:04;90934.81;;;28.73;33.01
59274;BME280;45044;41.572;24.730;2023-03-25T07:10:31;90927.06;;;29.05;33.00
59274;BME280;45044;41.572;24.730;2023-03-25T07:12:57;90917.00;;;29.37;32.30
59274;BME280;45044;41.572;24.730;2023-03-25T07:15:24;90920.41;;;28.58;32.92
59274;BME280;45044;41.572;24.730;2023-03-25T07:17:51;90914.66;;;29.22;32.40
59274;BME280;45044;41.572;24.730;2023-03-25T07:20:18;90922.50;;;29.56;31.97
59274;BME280;45044;41.572;24.730;2023-03-25T07:22:45;90919.94;;;30.26;31.60
59274;BME280;45044;41.572;24.730;2023-03-25T07:25:11;90916.69;;;30.02;31.11
59274;BME280;45044;41.572;24.730;2023-03-25T07:27:39;90925.88;;;30.43;30.53
59274;BME280;45044;41.572;24.730;2023-03-25T07:30:06;90910.38;;;30.63;31.19
59274;BME280;45044;41.572;24.730;2023-03-25T07:32:33;90914.91;;;30.55;31.45
59274;BME280;45044;41.572;24.730;2023-03-25T07:35:00;90906.63;;;31.24;30.12
59274;BME280;45044;41.572;24.730;2023-03-25T07:37:27;90899.03;;;30.84;30.23
59274;BME280;45044;41.572;24.730;2023-03-25T07:39:54;90902.94;;;31.22;30.04
59274;BME280;45044;41.572;24.730;2023-03-25T07:42:20;90896.69;;;31.46;29.92
59274;BME280;45044;41.572;24.730;2023-03-25T07:44:47;90902.56;;;29.23;31.44
59274;BME280;45044;41.572;24.730;2023-03-25T07:47:14;90896.75;;;29.99;31.47
59274;BME280;45044;41.572;24.730;2023-03-25T07:49:41;90884.69;;;29.14;31.30
59274;BME280;45044;41.572;24.730;2023-03-25T07:52:08;90888.06;;;28.36;31.36
59274;BME280;45044;41.572;24.730;2023-03-25T07:54:35;90880.16;;;27.38;33.58
59274;BME280;45044;41.572;24.730;2023-03-25T07:57:03;90884.53;;;27.76;33.78
59274;BME280;45044;41.572;24.730;2023-03-25T07:59:31;90886.72;;;27.89;33.73
59274;BME280;45044;41.572;24.730;2023-03-25T08:01:58;90882.13;;;28.43;33.23
59274;BME280;45044;41.572;24.730;2023-03-25T08:04:25;90874.63;;;28.13;33.66
59274;BME280;45044;41.572;24.730;2023-03-25T08:06:52;90868.50;;;26.46;34.27
59274;BME280;45044;41.572;24.730;2023-03-25T08:09:18;90869.75;;;26.50;34.83
59274;BME280;45044;41.572;24.730;2023-03-25T08:11:47;90858.53;;;25.97;36.76
59274;BME280;45044;41.572;24.730;2023-03-25T08:14:14;90865.47;;;26.21;35.97
59274;BME280;45044;41.572;24.730;2023-03-25T08:16:41;90856.31;;;26.79;35.92
59274;BME280;45044;41.572;24.730;2023-03-25T08:19:08;90856.84;;;27.41;33.79
59274;BME280;45044;41.572;24.730;2023-03-25T08:21:34;90854.91;;;27.24;35.29
59274;BME280;45044;41.572;24.730;2023-03-25T08:24:01;90849.72;;;27.55;33.33
59274;BME280;45044;41.572;24.730;2023-03-25T08:26:31;90846.72;;;28.52;31.59
59274;BME280;45044;41.572;24.730;2023-03-25T08:29:01;90844.09;;;27.30;32.60
59274;BME280;45044;41.572;24.730;2023-03-25T08:31:31;90843.03;;;26.47;33.62
59274;BME280;45044;41.572;24.730;2023-03-25T08:33:59;90835.75;;;28.27;32.27
59274;BME280;45044;41.572;24.730;2023-03-25T08:36:27;90841.31;;;28.52;31.28
59274;BME280;45044;41.572;24.730;2023-03-25T08:38:54;90830.56;;;27.64;31.53
59274;BME280;45044;41.572;24.730;2023-03-25T08:41:21;90837.16;;;27.63;31.71
59274;BME280;45044;41.572;24.730;2023-03-25T08:43:49;90832.81;;;28.25;29.88
59274;BME280;45044;41.572;24.730;2023-03-25T08:46:16;90827.97;;;28.06;29.74
59274;BME280;45044;41.572;24.730;2023-03-25T08:48:43;90824.31;;;29.00;28.08
59274;BME280;45044;41.572;24.730;2023-03-25T08:51:10;90822.13;;;27.96;30.02
59274;BME280;45044;41.572;24.730;2023-03-25T08:53:36;90823.69;;;27.74;29.58
59274;BME280;45044;41.572;24.730;2023-03-25T08:56:03;90822.53;;;26.95;30.22
59274;BME280;45044;41.572;24.730;2023-03-25T08:58:31;90817.66;;;28.10;30.27
59274;BME280;45044;41.572;24.730;2023-03-25T09:00:58;90795.53;;;28.66;29.20
59274;BME280;45044;41.572;24.730;2023-03-25T09:03:25;90809.03;;;29.83;28.01
59274;BME280;45044;41.572;24.730;2023-03-25T09:05:54;90796.38;;;28.86;29.83
59274;BME280;45044;41.572;24.730;2023-03-25T09:08:22;90800.91;;;29.33;27.84
59274;BME280;45044;41.572;24.730;2023-03-25T09:10:49;90812.25;;;29.32;28.75
59274;BME280;45044;41.572;24.730;2023-03-25T09:13:20;90792.09;;;30.02;27.53
59274;BME280;45044;41.572;24.730;2023-03-25T09:15:47;90785.25;;;29.95;28.52
59274;BME280;45044;41.572;24.730;2023-03-25T09:18:13;90793.34;;;29.26;28.31
59274;BME280;45044;41.572;24.730;2023-03-25T09:20:41;90793.38;;;28.89;29.47
59274;BME280;45044;41.572;24.730;2023-03-25T09:23:08;90788.16;;;28.97;29.20
59274;BME280;45044;41.572;24.730;2023-03-25T09:25:37;90780.75;;;28.25;28.46
59274;BME280;45044;41.572;24.730;2023-03-25T09:28:04;90780.03;;;28.66;28.80
59274;BME280;45044;41.572;24.730;2023-03-25T09:30:31;90778.16;;;27.02;31.90
59274;BME280;45044;41.572;24.730;2023-03-25T09:32:59;90776.81;;;27.72;30.52
59274;BME280;45044;41.572;24.730;2023-03-25T09:35:27;90767.63;;;27.04;30.81
59274;BME280;45044;41.572;24.730;2023-03-25T09:37:53;90772.50;;;26.88;30.00
59274;BME280;45044;41.572;24.730;2023-03-25T09:40:21;90765.91;;;26.95;30.96
59274;BME280;45044;41.572;24.730;2023-03-25T09:42:56;90765.91;;;26.72;29.55
59274;BME280;45044;41.572;24.730;2023-03-25T09:48:03;90762.66;;;26.28;30.89
59274;BME280;45044;41.572;24.730;2023-03-25T09:50:33;90765.97;;;24.36;33.51
59274;BME280;45044;41.572;24.730;2023-03-25T09:53:10;90764.94;;;23.80;34.10
59274;BME280;45044;41.572;24.730;2023-03-25T09:55:41;90756.19;;;23.23;32.97
59274;BME280;45044;41.572;24.730;2023-03-25T09:58:26;90755.25;;;21.74;35.75
59274;BME280;45044;41.572;24.730;2023-03-25T10:01:22;90754.63;;;21.15;36.01
59274;BME280;45044;41.572;24.730;2023-03-25T10:10:06;90748.66;;;21.85;36.73
59274;BME280;45044;41.572;24.730;2023-03-25T10:12:49;90748.00;;;21.50;36.22
59274;BME280;45044;41.572;24.730;2023-03-25T10:15:35;90742.81;;;22.71;38.14
59274;BME280;45044;41.572;24.730;2023-03-25T10:21:19;90726.25;;;22.88;34.95
59274;BME280;45044;41.572;24.730;2023-03-25T10:26:54;90720.78;;;24.61;37.34
59274;BME280;45044;41.572;24.730;2023-03-25T10:29:45;90723.88;;;24.21;34.32
59274;BME280;45044;41.572;24.730;2023-03-25T10:35:04;90717.06;;;23.99;36.09
59274;BME280;45044;41.572;24.730;2023-03-25T10:37:34;90713.41;;;23.34;36.54
59274;BME280;45044;41.572;24.730;2023-03-25T10:45:21;90698.59;;;22.46;37.28
59274;BME280;45044;41.572;24.730;2023-03-25T10:47:49;90696.59;;;21.95;37.42
59274;BME280;45044;41.572;24.730;2023-03-25T10:50:20;90703.06;;;21.64;37.49
59274;BME280;45044;41.572;24.730;2023-03-25T10:52:48;90700.06;;;21.47;37.65
59274;BME280;45044;41.572;24.730;2023-03-25T10:55:23;90696.50;;;21.25;38.93
59274;BME280;45044;41.572;24.730;2023-03-25T10:57:51;90688.97;;;20.56;38.30
59274;BME280;45044;41.572;24.730;2023-03-25T11:00:20;90694.78;;;20.54;39.08
59274;BME280;45044;41.572;24.730;2023-03-25T11:02:50;90684.56;;;20.53;38.95
59274;BME280;45044;41.572;24.730;2023-03-25T11:05:20;90699.16;;;20.67;39.79
59274;BME280;45044;41.572;24.730;2023-03-25T11:07:53;90692.25;;;20.51;40.67
59274;BME280;45044;41.572;24.730;2023-03-25T11:10:27;90688.16;;;20.40;41.28
59274;BME280;45044;41.572;24.730;2023-03-25T11:12:55;90692.31;;;20.32;40.42
59274;BME280;45044;41.572;24.730;2023-03-25T11:15:28;90690.03;;;20.15;42.74
59274;BME280;45044;41.572;24.730;2023-03-25T11:18:23;90690.78;;;19.97;42.30
59274;BME280;45044;41.572;24.730;2023-03-25T11:20:59;90681.72;;;19.94;42.83
59274;BME280;45044;41.572;24.730;2023-03-25T11:23:33;90682.97;;;19.65;43.58
59274;BME280;45044;41.572;24.730;2023-03-25T11:26:10;90673.50;;;19.55;44.22
59274;BME280;45044;41.572;24.730;2023-03-25T11:28:44;90677.38;;;19.54;44.97
59274;BME280;45044;41.572;24.730;2023-03-25T11:33:40;90679.72;;;19.61;44.54
59274;BME280;45044;41.572;24.730;2023-03-25T11:36:27;90676.13;;;19.83;44.59
59274;BME280;45044;41.572;24.730;2023-03-25T11:38:59;90667.41;;;19.63;44.96
59274;BME280;45044;41.572;24.730;2023-03-25T11:41:29;90679.28;;;19.53;46.16
59274;BME280;45044;41.572;24.730;2023-03-25T11:43:57;90669.66;;;19.37;46.66
59274;BME280;45044;41.572;24.730;2023-03-25T11:46:24;90667.56;;;19.50;46.51
59274;BME280;45044;41.572;24.730;2023-03-25T11:48:51;90657.66;;;19.51;46.25
59274;BME280;45044;41.572;24.730;2023-03-25T11:51:27;90675.88;;;19.34;46.37
59274;BME280;45044;41.572;24.730;2023-03-25T11:54:04;90681.06;;;19.28;47.65
59274;BME280;45044;41.572;24.730;2023-03-25T11:56:40;90681.19;;;19.15;47.25
59274;BME280;45044;41.572;24.730;2023-03-25T11:59:17;90676.75;;;19.12;47.69
59274;BME280;45044;41.572;24.730;2023-03-25T12:01:48;90682.00;;;18.84;47.77
59274;BME280;45044;41.572;24.730;2023-03-25T12:04:19;90675.22;;;18.92;47.24
59274;BME280;45044;41.572;24.730;2023-03-25T12:07:00;90682.56;;;18.69;48.16
59274;BME280;45044;41.572;24.730;2023-03-25T12:09:32;90685.53;;;18.71;47.89
59274;BME280;45044;41.572;24.730;2023-03-25T12:12:06;90681.34;;;18.51;47.39
59274;BME280;45044;41.572;24.730;2023-03-25T12:17:31;90677.97;;;18.28;49.92
59274;BME280;45044;41.572;24.730;2023-03-25T12:25:43;90669.88;;;18.32;48.99
59274;BME280;45044;41.572;24.730;2023-03-25T12:31:30;90670.00;;;18.28;47.38
59274;BME280;45044;41.572;24.730;2023-03-25T12:50:59;90658.84;;;18.52;48.34
59274;BME280;45044;41.572;24.730;2023-03-25T12:53:45;90653.63;;;18.30;49.01
59274;BME280;45044;41.572;24.730;2023-03-25T13:07:33;90634.47;;;18.45;47.30
59274;BME280;45044;41.572;24.730;2023-03-25T13:12:56;90635.25;;;18.64;47.29
59274;BME280;45044;41.572;24.730;2023-03-25T13:15:55;90636.13;;;18.61;47.21
59274;BME280;45044;41.572;24.730;2023-03-25T13:18:36;90619.56;;;18.57;45.76
59274;BME280;45044;41.572;24.730;2023-03-25T13:21:09;90641.94;;;18.27;47.22
59274;BME280;45044;41.572;24.730;2023-03-25T13:23:41;90632.69;;;18.10;49.13
59274;BME280;45044;41.572;24.730;2023-03-25T13:26:17;90635.03;;;18.07;49.38
59274;BME280;45044;41.572;24.730;2023-03-25T13:28:47;90628.91;;;17.88;49.85
59274;BME280;45044;41.572;24.730;2023-03-25T13:31:19;90625.97;;;18.27;48.58
59274;BME280;45044;41.572;24.730;2023-03-25T13:37:07;90626.47;;;18.13;48.31
59274;BME280;45044;41.572;24.730;2023-03-25T13:45:17;90622.31;;;18.02;48.53
59274;BME280;45044;41.572;24.730;2023-03-25T13:50:28;90620.63;;;17.86;49.76
59274;BME280;45044;41.572;24.730;2023-03-25T13:53:08;90611.03;;;17.89;50.65
59274;BME280;45044;41.572;24.730;2023-03-25T13:55:47;90620.03;;;18.23;51.79
59274;BME280;45044;41.572;24.730;2023-03-25T14:06:45;90605.34;;;18.60;48.00
59274;BME280;45044;41.572;24.730;2023-03-25T14:12:14;90599.13;;;18.44;47.93
59274;BME280;45044;41.572;24.730;2023-03-25T14:14:48;90576.75;;;17.91;47.70
59274;BME280;45044;41.572;24.730;2023-03-25T14:17:17;90596.47;;;18.03;46.98
59274;BME280;45044;41.572;24.730;2023-03-25T14:19:50;90590.06;;;18.32;46.52
59274;BME280;45044;41.572;24.730;2023-03-25T14:22:23;90583.94;;;18.13;47.21
59274;BME280;45044;41.572;24.730;2023-03-25T14:24:53;90590.06;;;17.91;47.96
59274;BME280;45044;41.572;24.730;2023-03-25T14:27:29;90580.56;;;17.80;49.10
59274;BME280;45044;41.572;24.730;2023-03-25T14:30:06;90585.28;;;17.76;48.23
59274;BME280;45044;41.572;24.730;2023-03-25T14:32:41;90566.09;;;17.81;48.35
59274;BME280;45044;41.572;24.730;2023-03-25T14:43:31;90577.38;;;17.95;48.34
59274;BME280;45044;41.572;24.730;2023-03-25T14:48:34;90576.16;;;17.87;49.17
59274;BME280;45044;41.572;24.730;2023-03-25T14:53:39;90571.09;;;18.11;48.88
59274;BME280;45044;41.572;24.730;2023-03-25T14:56:14;90567.72;;;18.20;48.38
59274;BME280;45044;41.572;24.730;2023-03-25T14:58:42;90561.22;;;18.21;47.71
59274;BME280;45044;41.572;24.730;2023-03-25T15:01:13;90569.13;;;18.02;48.52
59274;BME280;45044;41.572;24.730;2023-03-25T15:03:43;90574.09;;;17.91;53.38
59274;BME280;45044;41.572;24.730;2023-03-25T15:06:19;90577.25;;;17.67;58.03
59274;BME280;45044;41.572;24.730;2023-03-25T15:08:55;90574.03;;;17.72;61.42
59274;BME280;45044;41.572;24.730;2023-03-25T15:11:32;90577.00;;;17.74;60.60
59274;BME280;45044;41.572;24.730;2023-03-25T15:14:03;90578.13;;;17.64;61.20
59274;BME280;45044;41.572;24.730;2023-03-25T15:17:01;90577.50;;;17.59;62.66
59274;BME280;45044;41.572;24.730;2023-03-25T15:22:31;90581.47;;;17.55;64.26
59274;BME280;45044;41.572;24.730;2023-03-25T15:24:59;90582.22;;;17.55;64.49
59274;BME280;45044;41.572;24.730;2023-03-25T15:33:44;90574.09;;;17.27;65.72
59274;BME280;45044;41.572;24.730;2023-03-25T15:41:40;90566.13;;;16.69;73.52
59274;BME280;45044;41.572;24.730;2023-03-25T15:52:42;90563.03;;;16.35;75.58